Saltar para o conteúdo principal

Leiria (Aeródromo)

ID 1210718 · 39.7806, -8.8182 mapa

Última leitura · 2026-05-09 19:00 (Europe/Lisbon)

Temperatura
16.6 °C
Humidade
78 %
Pressão
1,006.7 hPa
Precipitação
0.0 mm
Radiação
1,453 W/m²
Velocidade do vento
14.4 km/h
Direcção do vento
S · Sul

Histórico de 24 horas

Hora (Europe/Lisbon) Temperatura Humidade Pressão Chuva Vento Direcção
2026-05-09 19:00 16.6 °C 78 % 1,006.7 0.0 mm 14.4 km/h S
2026-05-09 18:00 15.5 °C 81 % 1,006.2 1.4 mm 7.6 km/h SE
2026-05-09 17:00 17.6 °C 69 % 1,005.4 0.0 mm 23.8 km/h S
2026-05-09 16:00 17.9 °C 67 % 1,005.3 0.0 mm 17.6 km/h SW
2026-05-09 15:00 18.0 °C 66 % 1,004.5 0.0 mm 23.4 km/h S
2026-05-09 14:00 19.0 °C 61 % 1,004.1 0.0 mm 23.0 km/h S
2026-05-09 13:00 17.0 °C 75 % 1,004.1 0.1 mm 23.0 km/h S
2026-05-09 12:00 17.0 °C 74 % 1,003.6 0.1 mm 18.4 km/h S
2026-05-09 11:00 15.8 °C 79 % 1,003.6 0.0 mm 18.0 km/h S
2026-05-09 10:00 14.2 °C 87 % 1,003.7 0.0 mm 18.0 km/h SE
2026-05-09 09:00 12.9 °C 93 % 1,003.9 1.2 mm 11.5 km/h SE
2026-05-09 08:00 13.0 °C 95 % 1,003.6 6.4 mm 13.7 km/h S
2026-05-09 07:00 12.7 °C 95 % 1,003.3 0.4 mm 10.4 km/h E
2026-05-09 06:00 12.6 °C 94 % 1,003.7 0.0 mm 15.5 km/h E
2026-05-09 05:00 12.8 °C 93 % 1,004.5 3.1 mm 13.0 km/h E
2026-05-09 04:00 13.7 °C 84 % 1,004.6 1.4 mm 14.0 km/h SE
2026-05-09 03:00 14.3 °C 80 % 1,005.2 0.1 mm 21.2 km/h SE
2026-05-09 02:00 14.6 °C 78 % 1,005.8 0.0 mm 25.6 km/h SE
2026-05-09 01:00 14.6 °C 79 % 1,005.4 0.0 mm 23.8 km/h SE
2026-05-09 00:00 13.9 °C 87 % 1,005.7 0.0 mm 9.0 km/h SE
2026-05-08 23:00 14.2 °C 86 % 1,006.5 0.2 mm 23.8 km/h E
2026-05-08 22:00 15.4 °C 81 % 1,006.8 0.2 mm 14.8 km/h S
2026-05-08 21:00 16.3 °C 76 % 1,006.1 0.0 mm 11.2 km/h SE
2026-05-08 20:00 16.9 °C 71 % 1,006.3 0.0 mm 7.6 km/h E